sensor_id;sensor_type;location;lat;lon;timestamp;pressure;altitude;pressure_sealevel;temperature
69597;BMP180;56802;51.184;-115.558;2022-12-10T00:00:07;85395.40;;;-2.90
69597;BMP180;56802;51.184;-115.558;2022-12-10T00:02:37;85400.40;;;-2.90
69597;BMP180;56802;51.184;-115.558;2022-12-10T00:05:07;85404.80;;;-2.90
69597;BMP180;56802;51.184;-115.558;2022-12-10T00:07:37;85403.00;;;-2.92
69597;BMP180;56802;51.184;-115.558;2022-12-10T00:10:06;85408.60;;;-2.94
69597;BMP180;56802;51.184;-115.558;2022-12-10T00:12:37;85412.40;;;-3.00
69597;BMP180;56802;51.184;-115.558;2022-12-10T00:15:07;85409.00;;;-3.00
69597;BMP180;56802;51.184;-115.558;2022-12-10T00:17:36;85411.40;;;-3.00
69597;BMP180;56802;51.184;-115.558;2022-12-10T00:20:06;85415.80;;;-3.00
69597;BMP180;56802;51.184;-115.558;2022-12-10T00:22:36;85420.60;;;-3.00
69597;BMP180;56802;51.184;-115.558;2022-12-10T00:25:06;85427.00;;;-3.04
69597;BMP180;56802;51.184;-115.558;2022-12-10T00:27:35;85424.60;;;-3.08
69597;BMP180;56802;51.184;-115.558;2022-12-10T00:30:05;85426.40;;;-3.10
69597;BMP180;56802;51.184;-115.558;2022-12-10T00:32:34;85419.40;;;-3.10
69597;BMP180;56802;51.184;-115.558;2022-12-10T00:35:04;85416.00;;;-3.10
69597;BMP180;56802;51.184;-115.558;2022-12-10T00:37:33;85413.00;;;-3.20
69597;BMP180;56802;51.184;-115.558;2022-12-10T00:40:04;85416.60;;;-3.20
69597;BMP180;56802;51.184;-115.558;2022-12-10T00:42:33;85423.40;;;-3.30
69597;BMP180;56802;51.184;-115.558;2022-12-10T00:45:04;85427.80;;;-3.30
69597;BMP180;56802;51.184;-115.558;2022-12-10T00:47:33;85433.80;;;-3.32
69597;BMP180;56802;51.184;-115.558;2022-12-10T00:50:03;85429.00;;;-3.40
69597;BMP180;56802;51.184;-115.558;2022-12-10T00:52:32;85434.40;;;-3.40
69597;BMP180;56802;51.184;-115.558;2022-12-10T00:55:02;85432.00;;;-3.40
69597;BMP180;56802;51.184;-115.558;2022-12-10T00:57:31;85434.40;;;-3.48
69597;BMP180;56802;51.184;-115.558;2022-12-10T01:00:00;85427.00;;;-3.50
69597;BMP180;56802;51.184;-115.558;2022-12-10T01:02:29;85426.40;;;-3.58
69597;BMP180;56802;51.184;-115.558;2022-12-10T01:04:59;85423.80;;;-3.60
69597;BMP180;56802;51.184;-115.558;2022-12-10T01:07:28;85426.20;;;-3.70
69597;BMP180;56802;51.184;-115.558;2022-12-10T01:09:57;85430.60;;;-3.70
69597;BMP180;56802;51.184;-115.558;2022-12-10T01:12:26;85426.40;;;-3.80
69597;BMP180;56802;51.184;-115.558;2022-12-10T01:14:58;85432.60;;;-3.80
69597;BMP180;56802;51.184;-115.558;2022-12-10T01:17:27;85428.20;;;-3.88
69597;BMP180;56802;51.184;-115.558;2022-12-10T01:19:56;85431.60;;;-3.90
69597;BMP180;56802;51.184;-115.558;2022-12-10T01:22:26;85437.00;;;-3.98
69597;BMP180;56802;51.184;-115.558;2022-12-10T01:24:55;85439.80;;;-4.00
69597;BMP180;56802;51.184;-115.558;2022-12-10T01:27:24;85434.20;;;-4.00
69597;BMP180;56802;51.184;-115.558;2022-12-10T01:29:53;85435.00;;;-4.10
69597;BMP180;56802;51.184;-115.558;2022-12-10T01:32:22;85429.80;;;-4.10
69597;BMP180;56802;51.184;-115.558;2022-12-10T01:34:52;85435.80;;;-4.10
69597;BMP180;56802;51.184;-115.558;2022-12-10T01:37:21;85424.00;;;-4.20
69597;BMP180;56802;51.184;-115.558;2022-12-10T01:39:50;85429.40;;;-4.20
69597;BMP180;56802;51.184;-115.558;2022-12-10T01:42:19;85434.00;;;-4.20
69597;BMP180;56802;51.184;-115.558;2022-12-10T01:47:18;85429.80;;;-4.20
69597;BMP180;56802;51.184;-115.558;2022-12-10T01:49:47;85426.80;;;-4.20
69597;BMP180;56802;51.184;-115.558;2022-12-10T01:52:16;85428.60;;;-4.14
69597;BMP180;56802;51.184;-115.558;2022-12-10T01:54:46;85430.00;;;-4.10
69597;BMP180;56802;51.184;-115.558;2022-12-10T01:57:21;85431.00;;;-4.10
69597;BMP180;56802;51.184;-115.558;2022-12-10T02:00:01;85429.00;;;-4.10
69597;BMP180;56802;51.184;-115.558;2022-12-10T02:02:58;85423.20;;;-4.18
69597;BMP180;56802;51.184;-115.558;2022-12-10T02:05:48;85422.00;;;-4.12
69597;BMP180;56802;51.184;-115.558;2022-12-10T02:08:37;85421.00;;;-4.14
69597;BMP180;56802;51.184;-115.558;2022-12-10T02:11:29;85417.60;;;-4.18
69597;BMP180;56802;51.184;-115.558;2022-12-10T02:14:27;85419.80;;;-4.20
69597;BMP180;56802;51.184;-115.558;2022-12-10T02:17:05;85412.20;;;-4.20
69597;BMP180;56802;51.184;-115.558;2022-12-10T02:20:08;85412.60;;;-4.30
69597;BMP180;56802;51.184;-115.558;2022-12-10T02:22:49;85410.60;;;-4.34
69597;BMP180;56802;51.184;-115.558;2022-12-10T02:25:24;85418.60;;;-4.40
69597;BMP180;56802;51.184;-115.558;2022-12-10T02:30:47;85429.00;;;-4.50
69597;BMP180;56802;51.184;-115.558;2022-12-10T02:33:20;85433.00;;;-4.50
69597;BMP180;56802;51.184;-115.558;2022-12-10T02:35:53;85426.40;;;-4.50
69597;BMP180;56802;51.184;-115.558;2022-12-10T02:38:32;85425.80;;;-4.50
69597;BMP180;56802;51.184;-115.558;2022-12-10T02:41:16;85423.20;;;-4.50
69597;BMP180;56802;51.184;-115.558;2022-12-10T02:43:51;85427.40;;;-4.52
69597;BMP180;56802;51.184;-115.558;2022-12-10T02:46:24;85423.60;;;-4.50
69597;BMP180;56802;51.184;-115.558;2022-12-10T02:48:54;85424.60;;;-4.50
69597;BMP180;56802;51.184;-115.558;2022-12-10T02:51:24;85421.60;;;-4.50
69597;BMP180;56802;51.184;-115.558;2022-12-10T03:00:09;85414.00;;;-4.50
69597;BMP180;56802;51.184;-115.558;2022-12-10T03:08:56;85414.80;;;-4.50
69597;BMP180;56802;51.184;-115.558;2022-12-10T03:11:28;85417.40;;;-4.48
69597;BMP180;56802;51.184;-115.558;2022-12-10T03:14:15;85424.60;;;-4.42
69597;BMP180;56802;51.184;-115.558;2022-12-10T03:17:00;85426.00;;;-4.40
69597;BMP180;56802;51.184;-115.558;2022-12-10T03:19:42;85420.40;;;-4.40
69597;BMP180;56802;51.184;-115.558;2022-12-10T03:22:14;85420.00;;;-4.40
69597;BMP180;56802;51.184;-115.558;2022-12-10T03:24:46;85413.60;;;-4.40
69597;BMP180;56802;51.184;-115.558;2022-12-10T03:27:20;85411.20;;;-4.40
69597;BMP180;56802;51.184;-115.558;2022-12-10T03:29:56;85421.20;;;-4.40
69597;BMP180;56802;51.184;-115.558;2022-12-10T03:32:28;85422.20;;;-4.44
69597;BMP180;56802;51.184;-115.558;2022-12-10T03:34:59;85425.40;;;-4.42
69597;BMP180;56802;51.184;-115.558;2022-12-10T03:37:30;85427.00;;;-4.48
69597;BMP180;56802;51.184;-115.558;2022-12-10T03:40:00;85429.60;;;-4.44
69597;BMP180;56802;51.184;-115.558;2022-12-10T03:42:31;85428.80;;;-4.42
69597;BMP180;56802;51.184;-115.558;2022-12-10T03:45:00;85430.80;;;-4.46
69597;BMP180;56802;51.184;-115.558;2022-12-10T03:47:29;85428.40;;;-4.44
69597;BMP180;56802;51.184;-115.558;2022-12-10T03:49:58;85423.00;;;-4.44
69597;BMP180;56802;51.184;-115.558;2022-12-10T03:52:27;85422.40;;;-4.42
69597;BMP180;56802;51.184;-115.558;2022-12-10T03:54:56;85428.00;;;-4.48
69597;BMP180;56802;51.184;-115.558;2022-12-10T03:57:25;85420.80;;;-4.50
69597;BMP180;56802;51.184;-115.558;2022-12-10T03:59:55;85423.20;;;-4.50
69597;BMP180;56802;51.184;-115.558;2022-12-10T04:02:24;85422.20;;;-4.42
69597;BMP180;56802;51.184;-115.558;2022-12-10T04:04:53;85419.20;;;-4.40
69597;BMP180;56802;51.184;-115.558;2022-12-10T04:07:22;85412.40;;;-4.40
69597;BMP180;56802;51.184;-115.558;2022-12-10T04:09:52;85410.40;;;-4.40
69597;BMP180;56802;51.184;-115.558;2022-12-10T04:12:21;85415.20;;;-4.50
69597;BMP180;56802;51.184;-115.558;2022-12-10T04:14:50;85408.60;;;-4.60
69597;BMP180;56802;51.184;-115.558;2022-12-10T04:17:45;85405.40;;;-4.60
69597;BMP180;56802;51.184;-115.558;2022-12-10T04:20:14;85406.00;;;-4.60
69597;BMP180;56802;51.184;-115.558;2022-12-10T04:23:02;85405.20;;;-4.60
69597;BMP180;56802;51.184;-115.558;2022-12-10T04:25:50;85408.60;;;-4.60
69597;BMP180;56802;51.184;-115.558;2022-12-10T04:28:38;85409.60;;;-4.70
69597;BMP180;56802;51.184;-115.558;2022-12-10T04:31:07;85403.00;;;-4.72
69597;BMP180;56802;51.184;-115.558;2022-12-10T04:33:36;85406.00;;;-4.80
69597;BMP180;56802;51.184;-115.558;2022-12-10T04:36:06;85409.40;;;-4.80
69597;BMP180;56802;51.184;-115.558;2022-12-10T04:38:35;85409.60;;;-4.80
69597;BMP180;56802;51.184;-115.558;2022-12-10T04:41:04;85413.60;;;-4.80
69597;BMP180;56802;51.184;-115.558;2022-12-10T04:43:45;85407.20;;;-4.80
69597;BMP180;56802;51.184;-115.558;2022-12-10T04:46:15;85407.40;;;-4.80
69597;BMP180;56802;51.184;-115.558;2022-12-10T04:48:43;85397.60;;;-4.80
69597;BMP180;56802;51.184;-115.558;2022-12-10T04:51:13;85396.60;;;-4.80
69597;BMP180;56802;51.184;-115.558;2022-12-10T04:53:42;85393.20;;;-4.78
69597;BMP180;56802;51.184;-115.558;2022-12-10T04:56:11;85389.00;;;-4.74
69597;BMP180;56802;51.184;-115.558;2022-12-10T04:58:49;85384.20;;;-4.70
69597;BMP180;56802;51.184;-115.558;2022-12-10T05:01:18;85372.00;;;-4.70
69597;BMP180;56802;51.184;-115.558;2022-12-10T05:03:47;85376.40;;;-4.70
69597;BMP180;56802;51.184;-115.558;2022-12-10T05:06:18;85373.60;;;-4.70
69597;BMP180;56802;51.184;-115.558;2022-12-10T05:08:48;85372.40;;;-4.78
69597;BMP180;56802;51.184;-115.558;2022-12-10T05:11:20;85379.00;;;-4.80
69597;BMP180;56802;51.184;-115.558;2022-12-10T05:13:50;85371.00;;;-4.80
69597;BMP180;56802;51.184;-115.558;2022-12-10T05:16:22;85373.20;;;-4.80
69597;BMP180;56802;51.184;-115.558;2022-12-10T05:18:54;85373.60;;;-4.80
69597;BMP180;56802;51.184;-115.558;2022-12-10T05:21:26;85376.20;;;-4.80
69597;BMP180;56802;51.184;-115.558;2022-12-10T05:24:16;85377.80;;;-4.80
69597;BMP180;56802;51.184;-115.558;2022-12-10T05:26:46;85371.60;;;-4.90
69597;BMP180;56802;51.184;-115.558;2022-12-10T05:29:20;85375.20;;;-4.90
69597;BMP180;56802;51.184;-115.558;2022-12-10T05:31:48;85376.80;;;-4.90
69597;BMP180;56802;51.184;-115.558;2022-12-10T05:34:18;85375.60;;;-4.90
69597;BMP180;56802;51.184;-115.558;2022-12-10T05:36:47;85374.60;;;-4.90
69597;BMP180;56802;51.184;-115.558;2022-12-10T05:39:16;85369.60;;;-4.90
69597;BMP180;56802;51.184;-115.558;2022-12-10T05:41:45;85361.80;;;-4.90
69597;BMP180;56802;51.184;-115.558;2022-12-10T05:44:14;85347.40;;;-4.88
69597;BMP180;56802;51.184;-115.558;2022-12-10T05:46:43;85344.80;;;-4.90
69597;BMP180;56802;51.184;-115.558;2022-12-10T05:49:12;85349.40;;;-4.90
69597;BMP180;56802;51.184;-115.558;2022-12-10T05:51:42;85344.40;;;-4.90
69597;BMP180;56802;51.184;-115.558;2022-12-10T05:54:11;85346.00;;;-4.90
69597;BMP180;56802;51.184;-115.558;2022-12-10T05:56:40;85349.00;;;-5.00
69597;BMP180;56802;51.184;-115.558;2022-12-10T05:59:10;85350.40;;;-5.00
69597;BMP180;56802;51.184;-115.558;2022-12-10T06:01:44;85346.80;;;-5.00
69597;BMP180;56802;51.184;-115.558;2022-12-10T06:04:13;85343.00;;;-5.00
69597;BMP180;56802;51.184;-115.558;2022-12-10T06:06:42;85349.80;;;-5.10
69597;BMP180;56802;51.184;-115.558;2022-12-10T06:09:13;85344.40;;;-5.10
69597;BMP180;56802;51.184;-115.558;2022-12-10T06:11:43;85341.20;;;-5.20
69597;BMP180;56802;51.184;-115.558;2022-12-10T06:14:12;85338.60;;;-5.28
69597;BMP180;56802;51.184;-115.558;2022-12-10T06:16:41;85336.20;;;-5.30
69597;BMP180;56802;51.184;-115.558;2022-12-10T06:19:10;85335.60;;;-5.30
69597;BMP180;56802;51.184;-115.558;2022-12-10T06:21:40;85334.00;;;-5.30
69597;BMP180;56802;51.184;-115.558;2022-12-10T06:24:09;85333.00;;;-5.30
69597;BMP180;56802;51.184;-115.558;2022-12-10T06:26:38;85332.20;;;-5.30
69597;BMP180;56802;51.184;-115.558;2022-12-10T06:29:08;85333.40;;;-5.30
69597;BMP180;56802;51.184;-115.558;2022-12-10T06:31:37;85331.60;;;-5.40
69597;BMP180;56802;51.184;-115.558;2022-12-10T06:34:07;85330.40;;;-5.40
69597;BMP180;56802;51.184;-115.558;2022-12-10T06:36:35;85332.00;;;-5.48
69597;BMP180;56802;51.184;-115.558;2022-12-10T06:39:05;85324.00;;;-5.48
69597;BMP180;56802;51.184;-115.558;2022-12-10T06:41:34;85325.40;;;-5.50
69597;BMP180;56802;51.184;-115.558;2022-12-10T06:44:07;85326.00;;;-5.60
69597;BMP180;56802;51.184;-115.558;2022-12-10T06:46:37;85328.40;;;-5.60
69597;BMP180;56802;51.184;-115.558;2022-12-10T06:49:07;85326.00;;;-5.62
69597;BMP180;56802;51.184;-115.558;2022-12-10T06:51:36;85327.80;;;-5.66
69597;BMP180;56802;51.184;-115.558;2022-12-10T06:54:07;85328.80;;;-5.66
69597;BMP180;56802;51.184;-115.558;2022-12-10T06:56:36;85326.40;;;-5.70
69597;BMP180;56802;51.184;-115.558;2022-12-10T06:59:06;85324.00;;;-5.70
69597;BMP180;56802;51.184;-115.558;2022-12-10T07:01:38;85325.80;;;-5.80
69597;BMP180;56802;51.184;-115.558;2022-12-10T07:04:09;85324.40;;;-5.80
69597;BMP180;56802;51.184;-115.558;2022-12-10T07:06:38;85320.00;;;-5.90
69597;BMP180;56802;51.184;-115.558;2022-12-10T07:09:10;85321.20;;;-5.90
69597;BMP180;56802;51.184;-115.558;2022-12-10T07:11:39;85311.60;;;-5.90
69597;BMP180;56802;51.184;-115.558;2022-12-10T07:14:18;85307.20;;;-5.90
69597;BMP180;56802;51.184;-115.558;2022-12-10T07:16:47;85304.00;;;-5.90
69597;BMP180;56802;51.184;-115.558;2022-12-10T07:19:17;85305.00;;;-5.90
69597;BMP180;56802;51.184;-115.558;2022-12-10T07:21:46;85299.60;;;-5.90
69597;BMP180;56802;51.184;-115.558;2022-12-10T07:24:18;85296.60;;;-5.90
69597;BMP180;56802;51.184;-115.558;2022-12-10T07:26:48;85295.20;;;-5.90
69597;BMP180;56802;51.184;-115.558;2022-12-10T07:29:20;85285.40;;;-5.90
69597;BMP180;56802;51.184;-115.558;2022-12-10T07:31:49;85281.20;;;-5.90
69597;BMP180;56802;51.184;-115.558;2022-12-10T07:34:19;85288.60;;;-5.90
69597;BMP180;56802;51.184;-115.558;2022-12-10T07:36:48;85278.40;;;-5.90
69597;BMP180;56802;51.184;-115.558;2022-12-10T07:39:18;85281.00;;;-5.90
69597;BMP180;56802;51.184;-115.558;2022-12-10T07:41:49;85288.00;;;-5.90
69597;BMP180;56802;51.184;-115.558;2022-12-10T07:44:23;85288.20;;;-5.90
69597;BMP180;56802;51.184;-115.558;2022-12-10T07:46:54;85288.80;;;-5.88
69597;BMP180;56802;51.184;-115.558;2022-12-10T07:49:24;85289.60;;;-5.80
69597;BMP180;56802;51.184;-115.558;2022-12-10T07:51:53;85288.00;;;-5.80
69597;BMP180;56802;51.184;-115.558;2022-12-10T07:54:22;85286.20;;;-5.80
69597;BMP180;56802;51.184;-115.558;2022-12-10T07:56:51;85287.20;;;-5.80
69597;BMP180;56802;51.184;-115.558;2022-12-10T07:59:20;85287.60;;;-5.80
69597;BMP180;56802;51.184;-115.558;2022-12-10T08:01:49;85284.20;;;-5.80
69597;BMP180;56802;51.184;-115.558;2022-12-10T08:04:19;85283.20;;;-5.80
69597;BMP180;56802;51.184;-115.558;2022-12-10T08:06:55;85276.00;;;-5.82
69597;BMP180;56802;51.184;-115.558;2022-12-10T08:09:24;85278.40;;;-5.80
69597;BMP180;56802;51.184;-115.558;2022-12-10T08:11:54;85272.80;;;-5.80
69597;BMP180;56802;51.184;-115.558;2022-12-10T08:14:23;85279.20;;;-5.88
69597;BMP180;56802;51.184;-115.558;2022-12-10T08:16:52;85273.40;;;-5.88
69597;BMP180;56802;51.184;-115.558;2022-12-10T08:19:21;85271.20;;;-5.90
69597;BMP180;56802;51.184;-115.558;2022-12-10T08:21:58;85268.80;;;-5.84
69597;BMP180;56802;51.184;-115.558;2022-12-10T08:24:27;85262.80;;;-5.80
69597;BMP180;56802;51.184;-115.558;2022-12-10T08:26:56;85265.80;;;-5.80
69597;BMP180;56802;51.184;-115.558;2022-12-10T08:29:25;85263.20;;;-5.72
69597;BMP180;56802;51.184;-115.558;2022-12-10T08:31:54;85265.00;;;-5.70
69597;BMP180;56802;51.184;-115.558;2022-12-10T08:34:24;85273.20;;;-5.68
69597;BMP180;56802;51.184;-115.558;2022-12-10T08:36:53;85266.20;;;-5.60
69597;BMP180;56802;51.184;-115.558;2022-12-10T08:39:23;85267.40;;;-5.60
69597;BMP180;56802;51.184;-115.558;2022-12-10T08:41:52;85260.60;;;-5.60
69597;BMP180;56802;51.184;-115.558;2022-12-10T08:44:21;85260.40;;;-5.60
69597;BMP180;56802;51.184;-115.558;2022-12-10T08:46:50;85266.40;;;-5.60
69597;BMP180;56802;51.184;-115.558;2022-12-10T08:49:20;85261.60;;;-5.60
69597;BMP180;56802;51.184;-115.558;2022-12-10T08:51:49;85261.80;;;-5.60
69597;BMP180;56802;51.184;-115.558;2022-12-10T08:54:18;85265.20;;;-5.60
69597;BMP180;56802;51.184;-115.558;2022-12-10T08:56:47;85263.00;;;-5.60
69597;BMP180;56802;51.184;-115.558;2022-12-10T08:59:17;85266.00;;;-5.52
69597;BMP180;56802;51.184;-115.558;2022-12-10T09:01:51;85263.60;;;-5.52
69597;BMP180;56802;51.184;-115.558;2022-12-10T09:04:23;85265.00;;;-5.60
69597;BMP180;56802;51.184;-115.558;2022-12-10T09:06:52;85263.60;;;-5.60
69597;BMP180;56802;51.184;-115.558;2022-12-10T09:09:21;85267.40;;;-5.60
69597;BMP180;56802;51.184;-115.558;2022-12-10T09:11:50;85259.80;;;-5.54
69597;BMP180;56802;51.184;-115.558;2022-12-10T09:14:20;85251.60;;;-5.50
69597;BMP180;56802;51.184;-115.558;2022-12-10T09:16:49;85255.60;;;-5.54
69597;BMP180;56802;51.184;-115.558;2022-12-10T09:19:19;85248.80;;;-5.50
69597;BMP180;56802;51.184;-115.558;2022-12-10T09:21:48;85246.00;;;-5.50
69597;BMP180;56802;51.184;-115.558;2022-12-10T09:24:18;85240.60;;;-5.56
69597;BMP180;56802;51.184;-115.558;2022-12-10T09:26:47;85242.60;;;-5.54
69597;BMP180;56802;51.184;-115.558;2022-12-10T09:29:16;85235.60;;;-5.50
69597;BMP180;56802;51.184;-115.558;2022-12-10T09:31:50;85239.80;;;-5.50
69597;BMP180;56802;51.184;-115.558;2022-12-10T09:34:19;85239.20;;;-5.44
69597;BMP180;56802;51.184;-115.558;2022-12-10T09:36:48;85240.60;;;-5.50
69597;BMP180;56802;51.184;-115.558;2022-12-10T09:39:17;85230.00;;;-5.50
69597;BMP180;56802;51.184;-115.558;2022-12-10T09:48:50;85225.00;;;-5.50
69597;BMP180;56802;51.184;-115.558;2022-12-10T09:53:29;85220.60;;;-5.60
69597;BMP180;56802;51.184;-115.558;2022-12-10T09:55:59;85217.40;;;-5.60
69597;BMP180;56802;51.184;-115.558;2022-12-10T09:58:29;85216.80;;;-5.70
69597;BMP180;56802;51.184;-115.558;2022-12-10T10:01:04;85203.00;;;-5.70
69597;BMP180;56802;51.184;-115.558;2022-12-10T10:03:40;85203.60;;;-5.80
69597;BMP180;56802;51.184;-115.558;2022-12-10T10:06:14;85194.60;;;-5.80
69597;BMP180;56802;51.184;-115.558;2022-12-10T10:08:52;85188.60;;;-5.80
69597;BMP180;56802;51.184;-115.558;2022-12-10T10:11:29;85187.60;;;-5.80
69597;BMP180;56802;51.184;-115.558;2022-12-10T10:14:18;85187.40;;;-5.90
69597;BMP180;56802;51.184;-115.558;2022-12-10T10:16:59;85188.20;;;-5.90
69597;BMP180;56802;51.184;-115.558;2022-12-10T10:19:33;85191.20;;;-5.92
69597;BMP180;56802;51.184;-115.558;2022-12-10T10:22:04;85185.00;;;-6.00
69597;BMP180;56802;51.184;-115.558;2022-12-10T10:24:45;85181.40;;;-6.00
69597;BMP180;56802;51.184;-115.558;2022-12-10T10:27:22;85179.20;;;-6.00
69597;BMP180;56802;51.184;-115.558;2022-12-10T10:29:58;85183.00;;;-6.00
69597;BMP180;56802;51.184;-115.558;2022-12-10T10:32:54;85182.00;;;-6.00
69597;BMP180;56802;51.184;-115.558;2022-12-10T10:38:07;85175.40;;;-6.00
69597;BMP180;56802;51.184;-115.558;2022-12-10T10:40:45;85182.60;;;-6.00
69597;BMP180;56802;51.184;-115.558;2022-12-10T10:43:26;85173.60;;;-6.00
69597;BMP180;56802;51.184;-115.558;2022-12-10T10:46:04;85173.80;;;-6.00
69597;BMP180;56802;51.184;-115.558;2022-12-10T10:48:33;85171.40;;;-6.00
69597;BMP180;56802;51.184;-115.558;2022-12-10T10:53:45;85163.00;;;-5.98
69597;BMP180;56802;51.184;-115.558;2022-12-10T10:56:31;85160.00;;;-6.00
69597;BMP180;56802;51.184;-115.558;2022-12-10T11:01:52;85163.20;;;-6.00
69597;BMP180;56802;51.184;-115.558;2022-12-10T11:04:45;85169.00;;;-6.00
69597;BMP180;56802;51.184;-115.558;2022-12-10T11:07:39;85169.40;;;-6.00
69597;BMP180;56802;51.184;-115.558;2022-12-10T11:10:20;85170.20;;;-6.10
69597;BMP180;56802;51.184;-115.558;2022-12-10T11:13:05;85165.60;;;-6.10
69597;BMP180;56802;51.184;-115.558;2022-12-10T11:15:40;85162.00;;;-6.20
69597;BMP180;56802;51.184;-115.558;2022-12-10T11:23:48;85150.40;;;-6.30
69597;BMP180;56802;51.184;-115.558;2022-12-10T11:29:34;85150.00;;;-6.32
69597;BMP180;56802;51.184;-115.558;2022-12-10T11:35:18;85139.20;;;-6.40
69597;BMP180;56802;51.184;-115.558;2022-12-10T11:44:30;85132.80;;;-6.52
69597;BMP180;56802;51.184;-115.558;2022-12-10T11:50:45;85125.20;;;-6.60
69597;BMP180;56802;51.184;-115.558;2022-12-10T11:56:33;85113.60;;;-6.60
69597;BMP180;56802;51.184;-115.558;2022-12-10T11:59:28;85103.40;;;-6.60
69597;BMP180;56802;51.184;-115.558;2022-12-10T12:08:43;85092.20;;;-6.60
69597;BMP180;56802;51.184;-115.558;2022-12-10T12:11:51;85092.20;;;-6.60
69597;BMP180;56802;51.184;-115.558;2022-12-10T12:14:29;85098.00;;;-6.60
69597;BMP180;56802;51.184;-115.558;2022-12-10T12:17:25;85089.80;;;-6.60
69597;BMP180;56802;51.184;-115.558;2022-12-10T12:20:22;85084.40;;;-6.60
69597;BMP180;56802;51.184;-115.558;2022-12-10T12:26:13;85083.80;;;-6.58
69597;BMP180;56802;51.184;-115.558;2022-12-10T12:28:58;85084.40;;;-6.52
69597;BMP180;56802;51.184;-115.558;2022-12-10T12:31:39;85072.40;;;-6.50
69597;BMP180;56802;51.184;-115.558;2022-12-10T12:37:18;85064.80;;;-6.58
69597;BMP180;56802;51.184;-115.558;2022-12-10T12:40:30;85056.80;;;-6.60
69597;BMP180;56802;51.184;-115.558;2022-12-10T12:43:13;85053.00;;;-6.50
69597;BMP180;56802;51.184;-115.558;2022-12-10T12:45:48;85051.20;;;-6.50
69597;BMP180;56802;51.184;-115.558;2022-12-10T12:51:16;85031.80;;;-6.50
69597;BMP180;56802;51.184;-115.558;2022-12-10T12:53:46;85028.80;;;-6.48
69597;BMP180;56802;51.184;-115.558;2022-12-10T12:56:47;85036.40;;;-6.50
69597;BMP180;56802;51.184;-115.558;2022-12-10T13:03:07;85026.40;;;-6.40
69597;BMP180;56802;51.184;-115.558;2022-12-10T13:05:47;85020.20;;;-6.40
69597;BMP180;56802;51.184;-115.558;2022-12-10T13:13:42;85016.00;;;-6.40
69597;BMP180;56802;51.184;-115.558;2022-12-10T13:27:32;85017.00;;;-6.50
69597;BMP180;56802;51.184;-115.558;2022-12-10T13:30:39;85015.20;;;-6.50
69597;BMP180;56802;51.184;-115.558;2022-12-10T13:33:18;85014.40;;;-6.60
69597;BMP180;56802;51.184;-115.558;2022-12-10T13:35:58;85029.60;;;-6.60
69597;BMP180;56802;51.184;-115.558;2022-12-10T13:45:25;85048.60;;;-6.70
69597;BMP180;56802;51.184;-115.558;2022-12-10T13:48:29;85053.40;;;-6.70
69597;BMP180;56802;51.184;-115.558;2022-12-10T13:51:48;85043.00;;;-6.80
69597;BMP180;56802;51.184;-115.558;2022-12-10T13:54:47;85037.60;;;-6.80
69597;BMP180;56802;51.184;-115.558;2022-12-10T14:00:22;85022.60;;;-6.80
69597;BMP180;56802;51.184;-115.558;2022-12-10T14:03:53;85016.20;;;-6.84
69597;BMP180;56802;51.184;-115.558;2022-12-10T14:06:32;85013.60;;;-6.86
69597;BMP180;56802;51.184;-115.558;2022-12-10T14:09:20;85023.20;;;-6.80
69597;BMP180;56802;51.184;-115.558;2022-12-10T14:12:05;85024.80;;;-6.80
69597;BMP180;56802;51.184;-115.558;2022-12-10T14:14:47;85018.60;;;-6.80
69597;BMP180;56802;51.184;-115.558;2022-12-10T14:17:24;85019.40;;;-6.88
69597;BMP180;56802;51.184;-115.558;2022-12-10T14:20:02;85023.20;;;-6.88
69597;BMP180;56802;51.184;-115.558;2022-12-10T14:22:43;85006.60;;;-6.90
69597;BMP180;56802;51.184;-115.558;2022-12-10T14:25:20;85005.80;;;-6.90
69597;BMP180;56802;51.184;-115.558;2022-12-10T14:27:53;85009.60;;;-6.90
69597;BMP180;56802;51.184;-115.558;2022-12-10T14:30:25;85009.00;;;-6.90
69597;BMP180;56802;51.184;-115.558;2022-12-10T14:32:59;85006.20;;;-6.90
69597;BMP180;56802;51.184;-115.558;2022-12-10T14:35:29;85004.40;;;-6.90
69597;BMP180;56802;51.184;-115.558;2022-12-10T14:37:59;84996.40;;;-6.80
69597;BMP180;56802;51.184;-115.558;2022-12-10T14:40:39;85000.20;;;-6.80
69597;BMP180;56802;51.184;-115.558;2022-12-10T14:43:36;84997.20;;;-6.80
69597;BMP180;56802;51.184;-115.558;2022-12-10T14:46:17;84997.60;;;-6.78
69597;BMP180;56802;51.184;-115.558;2022-12-10T14:48:46;84998.20;;;-6.74
69597;BMP180;56802;51.184;-115.558;2022-12-10T14:51:23;85002.80;;;-6.72
69597;BMP180;56802;51.184;-115.558;2022-12-10T14:53:55;85006.60;;;-6.70
69597;BMP180;56802;51.184;-115.558;2022-12-10T14:56:32;85002.40;;;-6.74
69597;BMP180;56802;51.184;-115.558;2022-12-10T14:59:15;85006.20;;;-6.80
69597;BMP180;56802;51.184;-115.558;2022-12-10T15:01:50;85010.40;;;-6.84
69597;BMP180;56802;51.184;-115.558;2022-12-10T15:04:38;85009.80;;;-6.90
69597;BMP180;56802;51.184;-115.558;2022-12-10T15:07:18;85012.40;;;-6.90
69597;BMP180;56802;51.184;-115.558;2022-12-10T15:09:51;85005.40;;;-6.90
69597;BMP180;56802;51.184;-115.558;2022-12-10T15:12:29;85008.00;;;-6.92
69597;BMP180;56802;51.184;-115.558;2022-12-10T15:15:10;85011.60;;;-7.00
69597;BMP180;56802;51.184;-115.558;2022-12-10T15:26:23;85015.20;;;-7.00
69597;BMP180;56802;51.184;-115.558;2022-12-10T15:32:06;85020.00;;;-7.00
69597;BMP180;56802;51.184;-115.558;2022-12-10T15:34:48;85010.40;;;-7.00
69597;BMP180;56802;51.184;-115.558;2022-12-10T15:37:40;84999.60;;;-7.00
69597;BMP180;56802;51.184;-115.558;2022-12-10T15:40:29;85017.00;;;-7.00
69597;BMP180;56802;51.184;-115.558;2022-12-10T15:43:27;85027.60;;;-6.92
69597;BMP180;56802;51.184;-115.558;2022-12-10T15:45:59;85018.80;;;-6.90
69597;BMP180;56802;51.184;-115.558;2022-12-10T15:48:30;85021.00;;;-6.90
69597;BMP180;56802;51.184;-115.558;2022-12-10T15:50:59;85013.80;;;-6.90
69597;BMP180;56802;51.184;-115.558;2022-12-10T15:53:37;85012.20;;;-6.90
69597;BMP180;56802;51.184;-115.558;2022-12-10T15:56:07;85007.40;;;-7.00
69597;BMP180;56802;51.184;-115.558;2022-12-10T15:58:37;85005.00;;;-7.00
69597;BMP180;56802;51.184;-115.558;2022-12-10T16:01:07;85013.60;;;-7.00
69597;BMP180;56802;51.184;-115.558;2022-12-10T16:03:37;85023.20;;;-7.00
69597;BMP180;56802;51.184;-115.558;2022-12-10T16:06:09;85022.60;;;-7.00
69597;BMP180;56802;51.184;-115.558;2022-12-10T16:08:45;85024.00;;;-7.00